Dixiana, SC

4:13 AM EDT on October 22, 2014 (GMT -0400)
J and M Weather Station | Change Station
CLOSE
Current Station
Personal Weather Station
Location: Lexington, SC
Elevation: 315 ft
Nearby Weather Stations

Elev 315 ft 33.99 °N, 81.14 °W | Updated 3 seconds ago

Clear
Clear
46.4 °F
Feels Like 46 °F
N
0.0
Wind Variable Wind from South
Gusts 0.0 mph

Today
High -- | Low -- °F
--% Chance of Precip.
Yesterday
High -- | Low -- °F
Precip. -- in
7:35 AM 6:42 PM
Waning Crescent, 3% visible
Pressure 29.98 in
Visibility 10.0 miles
Clouds Clear
Windchill 46 °F
Dew Point 46 °F
Humidity 99%
Rainfall 0.00 in
Snow Depth Not available.
UV 0 out of 12
Pollen 3.60 out of 12
Air Quality Not available.
Flu Activity Sporadic
METAR KCAE 220756Z 35003KT 10SM CLR 13/05 A2998 RMK AO2 SLP151 T01280050

More Conditions Fewer Conditions

Pressure 29.98 in
Visibility 10.0 miles
Clouds Clear
Windchill 46 °F
Dew Point 46 °F
Humidity 99%
Rainfall 0.00 in
Snow Depth Not available.
UV 0 out of 12
Pollen 3.60 out of 12
Air Quality Not available.
Flu Activity Sporadic
METAR KCAE 220756Z 35003KT 10SM CLR 13/05 A2998 RMK AO2 SLP151 T01280050

More Conditions Fewer Conditions

10-Day Weather Forecast

Almanac

Astronomy

Oct. 22, 2014 Rise Set
Actual Time 7:35 AM EDT 6:42 PM EDT
Civil Twilight 7:09 AM EDT 7:07 PM EDT
Nautical Twilight 6:40 AM EDT 7:36 PM EDT
Astronomical Twilight 6:11 AM EDT 8:05 PM EDT
Moon 6:18 AM EDT 6:05 PM EDT
Length of Visible Light 11h 57m
Length of Day
11h 06m
Tomorrow will be 1m 57s shorter.
Waning Crescent, 3% of the Moon is Illuminated
Today
Waning Crescent
Oct 23
New
Oct 30
First Quarter
Nov 6
Full
Nov 14
Last Quarter

Today's Extremes

State Highs State Lows

Community

WunderPhotos

Upload Photos

1,763,889 photos uploaded!

Nearby

Air Quality

  Air Quality AQ Index Pollutant
Yesterday Good
OZONE

Snow Depth

Station Depth Elevation
No new snow has been reported.

Earthquake Activity

City Distance Mag. Time & Date
No recent earthquake activity has been reported nearby.
Minimum magnitude displayed is 2.5.

Coastal Water Temperatures

Place Temperature
No Stations Reporting

Nearby Weather Stations